Time,TemperatureF,DewpointF,PressureIn,WindDirection,WindDirectionDegrees,WindSpeedMPH,WindSpeedGustMPH,Humidity,HourlyPrecipIn,Conditions,Clouds,dailyrainin,SolarRadiationWatts/m^2,SoftwareType,DateUTC
2013-01-19 00:02:00,18.0,15.0,-100.00,NNW,335,1.0,2.0,88,0.00,,,0.00,1.000000,,2013-01-19 06:02:00,
2013-01-19 00:12:00,18.0,15.0,-100.00,NNW,335,1.0,2.0,88,0.00,,,0.00,1.000000,,2013-01-19 06:12:00,
2013-01-19 00:22:00,18.0,15.0,-100.00,NNW,335,1.0,2.0,88,0.00,,,0.00,1.000000,,2013-01-19 06:22:00,
2013-01-19 00:32:00,18.0,15.0,-100.00,NNW,335,1.0,2.0,88,0.00,,,0.00,1.000000,,2013-01-19 06:32:00,
2013-01-19 01:02:00,18.0,15.0,-100.00,NNW,329,2.0,3.0,88,0.00,,,0.00,1.000000,,2013-01-19 07:02:00,
2013-01-19 01:12:00,18.0,15.0,-100.00,NNW,329,2.0,3.0,88,0.00,,,0.00,1.000000,,2013-01-19 07:12:00,
2013-01-19 01:22:00,18.0,15.0,-100.00,NNW,329,2.0,3.0,88,0.00,,,0.00,1.000000,,2013-01-19 07:22:00,
2013-01-19 01:32:00,18.0,15.0,-100.00,NNW,329,2.0,3.0,88,0.00,,,0.00,1.000000,,2013-01-19 07:32:00,
2013-01-19 01:53:00,19.0,16.0,-100.00,NW,314,3.0,5.0,89,0.00,,,0.00,1.000000,,2013-01-19 07:53:00,
2013-01-19 02:02:00,19.0,16.0,-100.00,NW,314,3.0,5.0,89,0.00,,,0.00,1.000000,,2013-01-19 08:02:00,
2013-01-19 02:12:00,19.0,16.0,-100.00,NW,314,3.0,5.0,89,0.00,,,0.00,1.000000,,2013-01-19 08:12:00,
2013-01-19 02:22:00,19.0,16.0,-100.00,NW,314,3.0,5.0,89,0.00,,,0.00,1.000000,,2013-01-19 08:22:00,
2013-01-19 02:32:00,19.0,16.0,-100.00,NW,314,3.0,5.0,89,0.00,,,0.00,1.000000,,2013-01-19 08:32:00,
2013-01-19 02:53:00,19.0,17.0,-100.00,WSW,238,2.0,5.0,91,0.00,,,0.00,1.000000,,2013-01-19 08:53:00,
2013-01-19 03:02:00,19.0,17.0,-100.00,WSW,238,2.0,5.0,91,0.00,,,0.00,1.000000,,2013-01-19 09:02:00,
2013-01-19 03:12:00,19.0,17.0,-100.00,WSW,238,2.0,5.0,91,0.00,,,0.00,1.000000,,2013-01-19 09:12:00,
2013-01-19 03:23:00,19.0,17.0,-100.00,WSW,238,2.0,5.0,91,0.00,,,0.00,1.000000,,2013-01-19 09:23:00,
2013-01-19 03:32:00,19.0,17.0,-100.00,WSW,238,2.0,5.0,91,0.00,,,0.00,1.000000,,2013-01-19 09:32:00,
2013-01-19 03:53:00,19.0,17.0,-100.00,WSW,237,3.0,6.0,91,0.00,,,0.00,1.000000,,2013-01-19 09:53:00,
2013-01-19 04:02:00,19.0,17.0,-100.00,WSW,237,3.0,6.0,91,0.00,,,0.00,1.000000,,2013-01-19 10:02:00,
2013-01-19 04:12:00,19.0,17.0,-100.00,WSW,237,3.0,6.0,91,0.00,,,0.00,1.000000,,2013-01-19 10:12:00,
2013-01-19 04:22:00,19.0,17.0,-100.00,WSW,237,3.0,6.0,91,0.00,,,0.00,1.000000,,2013-01-19 10:22:00,
2013-01-19 04:32:00,19.0,17.0,-100.00,WSW,237,3.0,6.0,91,0.00,,,0.00,1.000000,,2013-01-19 10:32:00,
2013-01-19 05:03:00,19.0,17.0,-100.00,SW,223,3.0,5.0,91,0.00,,,0.00,1.000000,,2013-01-19 11:03:00,
2013-01-19 05:12:00,19.0,17.0,-100.00,SW,223,3.0,5.0,91,0.00,,,0.00,1.000000,,2013-01-19 11:12:00,
2013-01-19 07:03:00,20.0,18.0,-100.00,SSW,204,2.0,4.0,90,0.00,,,0.00,1.000000,,2013-01-19 13:03:00,
2013-01-19 07:12:00,20.0,18.0,-100.00,SSW,204,2.0,4.0,90,0.00,,,0.00,1.000000,,2013-01-19 13:12:00,
2013-01-19 07:22:00,20.0,18.0,-100.00,SSW,204,2.0,4.0,90,0.00,,,0.00,1.000000,,2013-01-19 13:22:00,
2013-01-19 07:33:00,20.0,18.0,-100.00,SSW,204,2.0,4.0,90,0.00,,,0.00,1.000000,,2013-01-19 13:33:00,
2013-01-19 08:03:00,20.0,17.0,-100.00,SSW,192,2.0,5.0,89,0.00,,,0.00,1.000000,,2013-01-19 14:03:00,
2013-01-19 08:12:00,20.0,17.0,-100.00,SSW,192,2.0,5.0,89,0.00,,,0.00,1.000000,,2013-01-19 14:12:00,
2013-01-19 08:23:00,20.0,17.0,-100.00,SSW,192,2.0,5.0,89,0.00,,,0.00,1.000000,,2013-01-19 14:23:00,
2013-01-19 08:34:00,20.0,17.0,-100.00,SSW,192,2.0,5.0,89,0.00,,,0.00,1.000000,,2013-01-19 14:34:00,
2013-01-19 09:03:00,22.0,20.0,-100.00,SW,222,4.0,6.0,90,0.00,,,0.00,3.000000,,2013-01-19 15:03:00,
2013-01-19 09:13:00,22.0,20.0,-100.00,SW,222,4.0,6.0,90,0.00,,,0.00,3.000000,,2013-01-19 15:13:00,
2013-01-19 09:23:00,22.0,20.0,-100.00,SW,222,4.0,6.0,90,0.00,,,0.00,3.000000,,2013-01-19 15:23:00,
2013-01-19 09:33:00,22.0,20.0,-100.00,SW,222,4.0,6.0,90,0.00,,,0.00,3.000000,,2013-01-19 15:33:00,
2013-01-19 10:03:00,24.0,22.0,-100.00,SW,225,5.0,9.0,90,0.00,,,0.00,11.000000,,2013-01-19 16:03:00,
2013-01-19 10:13:00,24.0,22.0,-100.00,SW,225,5.0,9.0,90,0.00,,,0.00,11.000000,,2013-01-19 16:13:00,
2013-01-19 10:23:00,24.0,22.0,-100.00,SW,225,5.0,9.0,90,0.00,,,0.00,11.000000,,2013-01-19 16:23:00,
2013-01-19 10:33:00,24.0,22.0,-100.00,SW,225,5.0,9.0,90,0.00,,,0.00,11.000000,,2013-01-19 16:33:00,
2013-01-19 11:03:00,29.0,25.0,-100.00,SW,224,5.0,10.0,85,0.00,,,0.00,47.000000,,2013-01-19 17:03:00,
2013-01-19 11:19:00,29.0,25.0,-100.00,SW,224,5.0,10.0,85,0.00,,,0.00,47.000000,,2013-01-19 17:19:00,
2013-01-19 11:28:00,29.0,25.0,-100.00,SW,224,5.0,10.0,85,0.00,,,0.00,47.000000,,2013-01-19 17:28:00,
2013-01-19 11:35:00,29.0,25.0,-100.00,SW,224,5.0,10.0,85,0.00,,,0.00,47.000000,,2013-01-19 17:35:00,
2013-01-19 11:55:00,31.0,26.0,-100.00,SW,224,5.0,13.0,82,0.00,,,0.00,168.000000,,2013-01-19 17:55:00,
2013-01-19 12:11:00,31.0,26.0,-100.00,SW,224,5.0,13.0,82,0.00,,,0.00,168.000000,,2013-01-19 18:11:00,
2013-01-19 12:35:00,31.0,26.0,-100.00,SW,224,5.0,13.0,82,0.00,,,0.00,168.000000,,2013-01-19 18:35:00,
2013-01-19 12:37:00,34.0,28.0,-100.00,WSW,245,5.0,11.0,80,0.00,,,0.00,146.000000,,2013-01-19 18:37:00,
2013-01-19 13:09:00,34.0,28.0,-100.00,WSW,245,5.0,11.0,80,0.00,,,0.00,146.000000,,2013-01-19 19:09:00,
2013-01-19 13:20:00,34.0,28.0,-100.00,WSW,245,5.0,11.0,80,0.00,,,0.00,146.000000,,2013-01-19 19:20:00,
2013-01-19 13:29:00,34.0,28.0,-100.00,WSW,245,5.0,11.0,80,0.00,,,0.00,146.000000,,2013-01-19 19:29:00,
2013-01-19 13:37:00,34.0,29.0,-100.00,SW,233,5.0,10.0,82,0.01,,,0.01,84.000000,,2013-01-19 19:37:00,
2013-01-19 13:58:00,34.0,29.0,-100.00,SW,233,5.0,10.0,82,0.01,,,0.01,84.000000,,2013-01-19 19:58:00,
2013-01-19 14:10:00,34.0,29.0,-100.00,SW,233,5.0,10.0,82,0.01,,,0.01,84.000000,,2013-01-19 20:10:00,
2013-01-19 14:25:00,34.0,29.0,-100.00,SW,233,5.0,10.0,82,0.01,,,0.01,84.000000,,2013-01-19 20:25:00,
2013-01-19 15:07:00,33.0,29.0,-100.00,West,262,7.0,14.0,85,0.07,,,0.08,73.000000,,2013-01-19 21:07:00,
2013-01-19 15:14:00,33.0,29.0,-100.00,West,262,7.0,14.0,85,0.07,,,0.08,73.000000,,2013-01-19 21:14:00,
2013-01-19 15:25:00,33.0,29.0,-100.00,West,262,7.0,14.0,85,0.07,,,0.08,73.000000,,2013-01-19 21:25:00,
2013-01-19 16:00:00,31.0,28.0,-100.00,WNW,287,5.0,15.0,87,0.03,,,0.11,43.000000,,2013-01-19 22:00:00,
2013-01-19 16:14:00,31.0,28.0,-100.00,WNW,287,5.0,15.0,87,0.03,,,0.11,43.000000,,2013-01-19 22:14:00,
2013-01-19 16:34:00,31.0,28.0,-100.00,WNW,287,5.0,15.0,87,0.03,,,0.11,43.000000,,2013-01-19 22:34:00,
2013-01-19 17:13:00,29.0,23.0,-100.00,NW,306,6.0,17.0,78,0.00,,,0.11,10.000000,,2013-01-19 23:13:00,
2013-01-19 17:25:00,29.0,23.0,-100.00,NW,306,6.0,17.0,78,0.00,,,0.11,10.000000,,2013-01-19 23:25:00,
2013-01-19 17:34:00,29.0,23.0,-100.00,NW,306,6.0,17.0,78,0.00,,,0.11,10.000000,,2013-01-19 23:34:00,
2013-01-19 18:07:00,23.0,20.0,-100.00,NNW,339,10.0,31.0,89,0.00,,,0.11,1.000000,,2013-01-20 00:07:00,
2013-01-19 18:15:00,23.0,20.0,-100.00,NNW,339,10.0,31.0,89,0.00,,,0.11,1.000000,,2013-01-20 00:15:00,
2013-01-19 18:25:00,23.0,20.0,-100.00,NNW,339,10.0,31.0,89,0.00,,,0.11,1.000000,,2013-01-20 00:25:00,
2013-01-19 18:35:00,23.0,20.0,-100.00,NNW,339,10.0,31.0,89,0.00,,,0.11,1.000000,,2013-01-20 00:35:00,
2013-01-19 19:04:00,17.0,11.0,-100.00,NNW,331,10.0,25.0,78,0.00,,,0.11,1.000000,,2013-01-20 01:04:00,
2013-01-19 19:20:00,17.0,11.0,-100.00,NNW,331,10.0,25.0,78,0.00,,,0.11,1.000000,,2013-01-20 01:20:00,
2013-01-19 19:26:00,17.0,11.0,-100.00,NNW,331,10.0,25.0,78,0.00,,,0.11,1.000000,,2013-01-20 01:26:00,
2013-01-19 19:36:00,17.0,11.0,-100.00,NNW,331,10.0,25.0,78,0.00,,,0.11,1.000000,,2013-01-20 01:36:00,
2013-01-19 20:04:00,15.0,9.0,-100.00,NNW,337,11.0,22.0,78,0.00,,,0.11,1.000000,,2013-01-20 02:04:00,
2013-01-19 20:15:00,15.0,9.0,-100.00,NNW,337,11.0,22.0,78,0.00,,,0.11,1.000000,,2013-01-20 02:15:00,
2013-01-19 20:26:00,15.0,9.0,-100.00,NNW,337,11.0,22.0,78,0.00,,,0.11,1.000000,,2013-01-20 02:26:00,
2013-01-19 20:35:00,15.0,9.0,-100.00,NNW,337,11.0,22.0,78,0.00,,,0.11,1.000000,,2013-01-20 02:35:00,
2013-01-19 20:37:00,12.0,6.0,-100.00,NNW,332,12.0,29.0,76,0.00,,,0.11,1.000000,,2013-01-20 02:37:00,
2013-01-19 21:08:00,12.0,6.0,-100.00,NNW,332,12.0,29.0,76,0.00,,,0.11,1.000000,,2013-01-20 03:08:00,
2013-01-19 21:14:00,12.0,6.0,-100.00,NNW,332,12.0,29.0,76,0.00,,,0.11,1.000000,,2013-01-20 03:14:00,
2013-01-19 21:25:00,12.0,6.0,-100.00,NNW,332,12.0,29.0,76,0.00,,,0.11,1.000000,,2013-01-20 03:25:00,
2013-01-19 21:58:00,6.0,-2.0,-100.00,NNW,343,12.0,31.0,70,0.00,,,0.11,1.000000,,2013-01-20 03:58:00,
2013-01-19 22:05:00,6.0,-2.0,-100.00,NNW,343,12.0,31.0,70,0.00,,,0.11,1.000000,,2013-01-20 04:05:00,
2013-01-19 22:15:00,6.0,-2.0,-100.00,NNW,343,12.0,31.0,70,0.00,,,0.11,1.000000,,2013-01-20 04:15:00,
2013-01-19 22:25:00,6.0,-2.0,-100.00,NNW,343,12.0,31.0,70,0.00,,,0.11,1.000000,,2013-01-20 04:25:00,
2013-01-19 22:35:00,6.0,-2.0,-100.00,NNW,343,12.0,31.0,70,0.00,,,0.11,1.000000,,2013-01-20 04:35:00,
2013-01-19 22:58:00,5.0,-1.0,-100.00,NNW,335,9.0,17.0,76,0.00,,,0.11,1.000000,,2013-01-20 04:58:00,
2013-01-19 23:04:00,5.0,-1.0,-100.00,NNW,335,9.0,17.0,76,0.00,,,0.11,1.000000,,2013-01-20 05:04:00,
2013-01-19 23:12:00,5.0,-1.0,-100.00,NNW,335,9.0,17.0,76,0.00,,,0.11,1.000000,,2013-01-20 05:12:00,
2013-01-19 23:22:00,5.0,-1.0,-100.00,NNW,335,9.0,17.0,76,0.00,,,0.11,1.000000,,2013-01-20 05:22:00,
2013-01-19 23:32:00,5.0,-1.0,-100.00,NNW,335,9.0,17.0,76,0.00,,,0.11,1.000000,,2013-01-20 05:32:00,